sensor_id;sensor_type;location;lat;lon;timestamp;temperature;humidity
43581;DHT22;29175;51.030;4.606;2022-10-31T00:01:36;15.30;99.90
43581;DHT22;29175;51.030;4.606;2022-10-31T00:04:03;15.40;99.90
43581;DHT22;29175;51.030;4.606;2022-10-31T00:06:29;15.30;99.90
43581;DHT22;29175;51.030;4.606;2022-10-31T00:09:00;15.30;99.90
43581;DHT22;29175;51.030;4.606;2022-10-31T00:11:27;15.40;99.90
43581;DHT22;29175;51.030;4.606;2022-10-31T00:13:52;15.30;99.90
43581;DHT22;29175;51.030;4.606;2022-10-31T00:16:21;15.30;99.90
43581;DHT22;29175;51.030;4.606;2022-10-31T00:18:56;15.30;99.90
43581;DHT22;29175;51.030;4.606;2022-10-31T00:21:22;15.40;99.90
43581;DHT22;29175;51.030;4.606;2022-10-31T00:23:49;15.30;99.90
43581;DHT22;29175;51.030;4.606;2022-10-31T00:26:15;15.20;99.90
43581;DHT22;29175;51.030;4.606;2022-10-31T00:28:41;15.10;99.90
43581;DHT22;29175;51.030;4.606;2022-10-31T00:31:08;15.10;99.90
43581;DHT22;29175;51.030;4.606;2022-10-31T00:33:36;15.20;99.90
43581;DHT22;29175;51.030;4.606;2022-10-31T00:36:03;15.10;99.90
43581;DHT22;29175;51.030;4.606;2022-10-31T00:38:30;15.10;99.90
43581;DHT22;29175;51.030;4.606;2022-10-31T00:40:56;15.10;99.90
43581;DHT22;29175;51.030;4.606;2022-10-31T00:43:21;15.00;99.90
43581;DHT22;29175;51.030;4.606;2022-10-31T00:45:47;14.80;99.90
43581;DHT22;29175;51.030;4.606;2022-10-31T00:48:13;14.80;99.90
43581;DHT22;29175;51.030;4.606;2022-10-31T00:50:39;14.60;99.90
43581;DHT22;29175;51.030;4.606;2022-10-31T00:53:05;14.60;99.90
43581;DHT22;29175;51.030;4.606;2022-10-31T00:55:31;14.70;99.90
43581;DHT22;29175;51.030;4.606;2022-10-31T00:57:57;14.70;99.90
43581;DHT22;29175;51.030;4.606;2022-10-31T01:00:22;14.80;99.90
43581;DHT22;29175;51.030;4.606;2022-10-31T01:02:48;14.70;99.90
43581;DHT22;29175;51.030;4.606;2022-10-31T01:05:15;14.70;99.90
43581;DHT22;29175;51.030;4.606;2022-10-31T01:07:41;14.70;99.90
43581;DHT22;29175;51.030;4.606;2022-10-31T01:10:08;14.60;99.90
43581;DHT22;29175;51.030;4.606;2022-10-31T01:12:42;14.60;99.90
43581;DHT22;29175;51.030;4.606;2022-10-31T01:15:08;14.50;99.90
43581;DHT22;29175;51.030;4.606;2022-10-31T01:17:34;14.40;99.90
43581;DHT22;29175;51.030;4.606;2022-10-31T01:20:00;14.40;99.90
43581;DHT22;29175;51.030;4.606;2022-10-31T01:22:26;14.30;99.90
43581;DHT22;29175;51.030;4.606;2022-10-31T01:24:52;14.30;99.90
43581;DHT22;29175;51.030;4.606;2022-10-31T01:27:17;14.30;99.90
43581;DHT22;29175;51.030;4.606;2022-10-31T01:29:43;14.30;99.90
43581;DHT22;29175;51.030;4.606;2022-10-31T01:32:09;14.30;99.90
43581;DHT22;29175;51.030;4.606;2022-10-31T01:34:34;14.20;99.90
43581;DHT22;29175;51.030;4.606;2022-10-31T01:37:00;14.20;99.90
43581;DHT22;29175;51.030;4.606;2022-10-31T01:39:26;14.20;99.90
43581;DHT22;29175;51.030;4.606;2022-10-31T01:41:53;14.20;99.90
43581;DHT22;29175;51.030;4.606;2022-10-31T01:47:04;14.00;99.90
43581;DHT22;29175;51.030;4.606;2022-10-31T01:49:46;14.00;99.90
43581;DHT22;29175;51.030;4.606;2022-10-31T01:52:44;14.00;99.90
43581;DHT22;29175;51.030;4.606;2022-10-31T01:55:22;14.00;99.90
43581;DHT22;29175;51.030;4.606;2022-10-31T01:57:52;14.00;99.90
43581;DHT22;29175;51.030;4.606;2022-10-31T02:00:20;14.00;99.90
43581;DHT22;29175;51.030;4.606;2022-10-31T02:02:47;13.90;99.90
43581;DHT22;29175;51.030;4.606;2022-10-31T02:05:18;13.90;99.90
43581;DHT22;29175;51.030;4.606;2022-10-31T02:08:27;13.90;99.90
43581;DHT22;29175;51.030;4.606;2022-10-31T02:10:34;13.90;99.90
43581;DHT22;29175;51.030;4.606;2022-10-31T02:13:03;13.80;99.90
43581;DHT22;29175;51.030;4.606;2022-10-31T02:15:30;13.80;99.90
43581;DHT22;29175;51.030;4.606;2022-10-31T02:17:56;13.80;99.90
43581;DHT22;29175;51.030;4.606;2022-10-31T02:20:27;13.80;99.90
43581;DHT22;29175;51.030;4.606;2022-10-31T02:33:55;13.70;99.90
43581;DHT22;29175;51.030;4.606;2022-10-31T02:36:43;13.60;99.90
43581;DHT22;29175;51.030;4.606;2022-10-31T02:39:24;13.60;99.90
43581;DHT22;29175;51.030;4.606;2022-10-31T02:44:51;13.40;99.90
43581;DHT22;29175;51.030;4.606;2022-10-31T02:47:34;13.30;99.90
43581;DHT22;29175;51.030;4.606;2022-10-31T02:50:07;13.40;99.90
43581;DHT22;29175;51.030;4.606;2022-10-31T02:52:35;13.30;99.90
43581;DHT22;29175;51.030;4.606;2022-10-31T02:57:48;13.50;99.90
43581;DHT22;29175;51.030;4.606;2022-10-31T03:00:15;13.50;99.90
43581;DHT22;29175;51.030;4.606;2022-10-31T03:08:11;13.50;99.90
43581;DHT22;29175;51.030;4.606;2022-10-31T03:16:10;13.40;99.90
43581;DHT22;29175;51.030;4.606;2022-10-31T03:19:17;13.40;99.90
43581;DHT22;29175;51.030;4.606;2022-10-31T03:22:17;13.40;99.90
43581;DHT22;29175;51.030;4.606;2022-10-31T03:24:43;13.30;99.90
43581;DHT22;29175;51.030;4.606;2022-10-31T03:27:14;13.30;99.90
43581;DHT22;29175;51.030;4.606;2022-10-31T03:29:40;13.20;99.90
43581;DHT22;29175;51.030;4.606;2022-10-31T03:32:15;13.10;99.90
43581;DHT22;29175;51.030;4.606;2022-10-31T03:34:44;13.10;99.90
43581;DHT22;29175;51.030;4.606;2022-10-31T03:37:13;13.10;99.90
43581;DHT22;29175;51.030;4.606;2022-10-31T03:39:41;13.00;99.90
43581;DHT22;29175;51.030;4.606;2022-10-31T03:42:18;13.00;99.90
43581;DHT22;29175;51.030;4.606;2022-10-31T03:44:57;13.00;99.90
43581;DHT22;29175;51.030;4.606;2022-10-31T03:47:24;13.00;99.90
43581;DHT22;29175;51.030;4.606;2022-10-31T03:49:50;13.10;99.90
43581;DHT22;29175;51.030;4.606;2022-10-31T03:52:24;13.20;99.90
43581;DHT22;29175;51.030;4.606;2022-10-31T03:54:58;13.20;99.90
43581;DHT22;29175;51.030;4.606;2022-10-31T03:58:06;13.20;99.90
43581;DHT22;29175;51.030;4.606;2022-10-31T04:00:35;13.20;99.90
43581;DHT22;29175;51.030;4.606;2022-10-31T04:03:04;13.10;99.90
43581;DHT22;29175;51.030;4.606;2022-10-31T04:05:32;13.10;99.90
43581;DHT22;29175;51.030;4.606;2022-10-31T04:08:01;13.00;99.90
43581;DHT22;29175;51.030;4.606;2022-10-31T04:10:27;13.00;99.90
43581;DHT22;29175;51.030;4.606;2022-10-31T04:13:13;13.00;99.90
43581;DHT22;29175;51.030;4.606;2022-10-31T04:15:41;13.00;99.90
43581;DHT22;29175;51.030;4.606;2022-10-31T04:18:09;13.00;99.90
43581;DHT22;29175;51.030;4.606;2022-10-31T04:20:36;13.10;99.90
43581;DHT22;29175;51.030;4.606;2022-10-31T04:23:03;13.10;99.90
43581;DHT22;29175;51.030;4.606;2022-10-31T04:25:29;13.10;99.90
43581;DHT22;29175;51.030;4.606;2022-10-31T04:27:56;13.10;99.90
43581;DHT22;29175;51.030;4.606;2022-10-31T04:30:22;13.00;99.90
43581;DHT22;29175;51.030;4.606;2022-10-31T04:32:48;13.00;99.90
43581;DHT22;29175;51.030;4.606;2022-10-31T04:35:13;12.80;99.90
43581;DHT22;29175;51.030;4.606;2022-10-31T04:37:39;12.70;99.90
43581;DHT22;29175;51.030;4.606;2022-10-31T04:40:05;12.60;99.90
43581;DHT22;29175;51.030;4.606;2022-10-31T04:42:31;12.60;99.90
43581;DHT22;29175;51.030;4.606;2022-10-31T04:44:57;12.60;99.90
43581;DHT22;29175;51.030;4.606;2022-10-31T04:47:23;12.70;99.90
43581;DHT22;29175;51.030;4.606;2022-10-31T04:49:48;12.70;99.90
43581;DHT22;29175;51.030;4.606;2022-10-31T04:52:15;12.60;99.90
43581;DHT22;29175;51.030;4.606;2022-10-31T04:54:41;12.60;99.90
43581;DHT22;29175;51.030;4.606;2022-10-31T04:57:06;12.70;99.90
43581;DHT22;29175;51.030;4.606;2022-10-31T04:59:32;12.80;99.90
43581;DHT22;29175;51.030;4.606;2022-10-31T05:01:58;12.80;99.90
43581;DHT22;29175;51.030;4.606;2022-10-31T05:04:23;12.90;99.90
43581;DHT22;29175;51.030;4.606;2022-10-31T05:06:49;12.90;99.90
43581;DHT22;29175;51.030;4.606;2022-10-31T05:09:14;13.00;99.90
43581;DHT22;29175;51.030;4.606;2022-10-31T05:11:41;12.90;99.90
43581;DHT22;29175;51.030;4.606;2022-10-31T05:14:07;12.90;99.90
43581;DHT22;29175;51.030;4.606;2022-10-31T05:16:34;12.90;99.90
43581;DHT22;29175;51.030;4.606;2022-10-31T05:18:59;12.90;99.90
43581;DHT22;29175;51.030;4.606;2022-10-31T05:21:25;12.90;99.90
43581;DHT22;29175;51.030;4.606;2022-10-31T05:23:51;13.00;99.90
43581;DHT22;29175;51.030;4.606;2022-10-31T05:26:18;12.90;99.90
43581;DHT22;29175;51.030;4.606;2022-10-31T05:28:44;12.90;99.90
43581;DHT22;29175;51.030;4.606;2022-10-31T05:31:13;12.90;99.90
43581;DHT22;29175;51.030;4.606;2022-10-31T05:33:38;13.00;99.90
43581;DHT22;29175;51.030;4.606;2022-10-31T05:36:04;13.00;99.90
43581;DHT22;29175;51.030;4.606;2022-10-31T05:38:30;13.00;99.90
43581;DHT22;29175;51.030;4.606;2022-10-31T05:40:56;13.00;99.90
43581;DHT22;29175;51.030;4.606;2022-10-31T05:43:28;13.00;99.90
43581;DHT22;29175;51.030;4.606;2022-10-31T05:45:54;13.00;99.90
43581;DHT22;29175;51.030;4.606;2022-10-31T05:48:20;13.00;99.90
43581;DHT22;29175;51.030;4.606;2022-10-31T05:50:48;13.00;99.90
43581;DHT22;29175;51.030;4.606;2022-10-31T05:53:15;13.00;99.90
43581;DHT22;29175;51.030;4.606;2022-10-31T05:55:41;13.00;99.90
43581;DHT22;29175;51.030;4.606;2022-10-31T05:58:08;13.00;99.90
43581;DHT22;29175;51.030;4.606;2022-10-31T06:00:33;12.90;99.90
43581;DHT22;29175;51.030;4.606;2022-10-31T06:03:07;12.90;99.90
43581;DHT22;29175;51.030;4.606;2022-10-31T06:05:33;12.90;99.90
43581;DHT22;29175;51.030;4.606;2022-10-31T06:07:59;12.80;99.90
43581;DHT22;29175;51.030;4.606;2022-10-31T06:10:24;12.70;99.90
43581;DHT22;29175;51.030;4.606;2022-10-31T06:12:50;12.70;99.90
43581;DHT22;29175;51.030;4.606;2022-10-31T06:15:16;12.60;99.90
43581;DHT22;29175;51.030;4.606;2022-10-31T06:17:42;12.50;99.90
43581;DHT22;29175;51.030;4.606;2022-10-31T06:20:08;12.40;99.90
43581;DHT22;29175;51.030;4.606;2022-10-31T06:22:34;12.50;99.90
43581;DHT22;29175;51.030;4.606;2022-10-31T06:25:00;12.60;99.90
43581;DHT22;29175;51.030;4.606;2022-10-31T06:27:26;12.60;99.90
43581;DHT22;29175;51.030;4.606;2022-10-31T06:29:51;12.80;99.90
43581;DHT22;29175;51.030;4.606;2022-10-31T06:32:17;12.90;99.90
43581;DHT22;29175;51.030;4.606;2022-10-31T06:34:44;13.00;99.90
43581;DHT22;29175;51.030;4.606;2022-10-31T06:37:13;13.00;99.90
43581;DHT22;29175;51.030;4.606;2022-10-31T06:39:39;13.10;99.90
43581;DHT22;29175;51.030;4.606;2022-10-31T06:42:05;13.10;99.90
43581;DHT22;29175;51.030;4.606;2022-10-31T06:44:33;13.20;99.90
43581;DHT22;29175;51.030;4.606;2022-10-31T06:46:59;13.20;99.90
43581;DHT22;29175;51.030;4.606;2022-10-31T06:49:24;13.20;99.90
43581;DHT22;29175;51.030;4.606;2022-10-31T06:51:51;13.20;99.90
43581;DHT22;29175;51.030;4.606;2022-10-31T06:54:17;13.20;99.90
43581;DHT22;29175;51.030;4.606;2022-10-31T06:56:46;13.20;99.90
43581;DHT22;29175;51.030;4.606;2022-10-31T06:59:12;13.20;99.90
43581;DHT22;29175;51.030;4.606;2022-10-31T07:01:38;13.20;99.90
43581;DHT22;29175;51.030;4.606;2022-10-31T07:04:04;13.20;99.90
43581;DHT22;29175;51.030;4.606;2022-10-31T07:06:29;13.20;99.90
43581;DHT22;29175;51.030;4.606;2022-10-31T07:08:55;13.30;99.90
43581;DHT22;29175;51.030;4.606;2022-10-31T07:11:20;13.50;99.90
43581;DHT22;29175;51.030;4.606;2022-10-31T07:13:46;13.50;99.90
43581;DHT22;29175;51.030;4.606;2022-10-31T07:16:12;13.60;99.90
43581;DHT22;29175;51.030;4.606;2022-10-31T07:18:38;13.60;99.90
43581;DHT22;29175;51.030;4.606;2022-10-31T07:21:04;13.70;99.90
43581;DHT22;29175;51.030;4.606;2022-10-31T07:23:30;13.70;99.90
43581;DHT22;29175;51.030;4.606;2022-10-31T07:25:56;13.70;99.90
43581;DHT22;29175;51.030;4.606;2022-10-31T07:28:23;13.80;99.90
43581;DHT22;29175;51.030;4.606;2022-10-31T07:30:53;13.90;99.90
43581;DHT22;29175;51.030;4.606;2022-10-31T07:33:19;13.90;99.90
43581;DHT22;29175;51.030;4.606;2022-10-31T07:35:44;14.00;99.90
43581;DHT22;29175;51.030;4.606;2022-10-31T07:38:11;14.00;99.90
43581;DHT22;29175;51.030;4.606;2022-10-31T07:40:38;14.10;99.90
43581;DHT22;29175;51.030;4.606;2022-10-31T07:43:04;14.10;99.90
43581;DHT22;29175;51.030;4.606;2022-10-31T07:45:30;14.20;99.90
43581;DHT22;29175;51.030;4.606;2022-10-31T07:47:56;14.30;99.90
43581;DHT22;29175;51.030;4.606;2022-10-31T07:50:28;14.30;99.90
43581;DHT22;29175;51.030;4.606;2022-10-31T07:53:04;14.40;99.90
43581;DHT22;29175;51.030;4.606;2022-10-31T07:55:30;14.40;99.90
43581;DHT22;29175;51.030;4.606;2022-10-31T07:58:01;14.20;99.90
43581;DHT22;29175;51.030;4.606;2022-10-31T08:00:28;14.30;99.90
43581;DHT22;29175;51.030;4.606;2022-10-31T08:03:14;14.50;99.90
43581;DHT22;29175;51.030;4.606;2022-10-31T08:05:40;14.70;99.90
43581;DHT22;29175;51.030;4.606;2022-10-31T08:08:07;14.70;99.90
43581;DHT22;29175;51.030;4.606;2022-10-31T08:10:34;14.80;99.90
43581;DHT22;29175;51.030;4.606;2022-10-31T08:13:06;14.80;99.90
43581;DHT22;29175;51.030;4.606;2022-10-31T08:15:32;14.90;99.90
43581;DHT22;29175;51.030;4.606;2022-10-31T08:18:00;14.90;99.90
43581;DHT22;29175;51.030;4.606;2022-10-31T08:20:25;14.90;99.90
43581;DHT22;29175;51.030;4.606;2022-10-31T08:23:02;14.90;99.90
43581;DHT22;29175;51.030;4.606;2022-10-31T08:25:31;15.00;99.90
43581;DHT22;29175;51.030;4.606;2022-10-31T08:27:57;15.10;99.90
43581;DHT22;29175;51.030;4.606;2022-10-31T08:30:25;15.00;99.90
43581;DHT22;29175;51.030;4.606;2022-10-31T08:33:15;15.20;99.90
43581;DHT22;29175;51.030;4.606;2022-10-31T08:35:42;15.30;99.90
43581;DHT22;29175;51.030;4.606;2022-10-31T08:38:10;15.30;99.90
43581;DHT22;29175;51.030;4.606;2022-10-31T08:40:36;15.40;99.90
43581;DHT22;29175;51.030;4.606;2022-10-31T08:43:11;15.50;99.90
43581;DHT22;29175;51.030;4.606;2022-10-31T08:45:37;15.60;99.90
43581;DHT22;29175;51.030;4.606;2022-10-31T08:48:05;15.70;99.90
43581;DHT22;29175;51.030;4.606;2022-10-31T08:50:33;15.80;99.90
43581;DHT22;29175;51.030;4.606;2022-10-31T08:53:01;15.90;99.90
43581;DHT22;29175;51.030;4.606;2022-10-31T08:55:26;15.80;99.90
43581;DHT22;29175;51.030;4.606;2022-10-31T08:57:56;15.80;99.90
43581;DHT22;29175;51.030;4.606;2022-10-31T09:00:22;15.70;99.90
43581;DHT22;29175;51.030;4.606;2022-10-31T09:02:48;15.70;99.90
43581;DHT22;29175;51.030;4.606;2022-10-31T09:05:14;15.60;99.90
43581;DHT22;29175;51.030;4.606;2022-10-31T09:07:39;15.60;99.90
43581;DHT22;29175;51.030;4.606;2022-10-31T09:10:05;15.60;99.90
43581;DHT22;29175;51.030;4.606;2022-10-31T09:12:31;15.60;99.90
43581;DHT22;29175;51.030;4.606;2022-10-31T09:14:56;15.50;99.90
43581;DHT22;29175;51.030;4.606;2022-10-31T09:17:22;15.50;99.90
43581;DHT22;29175;51.030;4.606;2022-10-31T09:19:48;15.50;99.90
43581;DHT22;29175;51.030;4.606;2022-10-31T09:22:14;15.60;99.90
43581;DHT22;29175;51.030;4.606;2022-10-31T09:24:39;15.50;99.90
43581;DHT22;29175;51.030;4.606;2022-10-31T09:27:05;15.70;99.90
43581;DHT22;29175;51.030;4.606;2022-10-31T09:29:31;15.90;99.90
43581;DHT22;29175;51.030;4.606;2022-10-31T09:31:57;16.00;99.90
43581;DHT22;29175;51.030;4.606;2022-10-31T09:34:23;16.30;99.90
43581;DHT22;29175;51.030;4.606;2022-10-31T09:36:48;16.30;99.90
43581;DHT22;29175;51.030;4.606;2022-10-31T09:39:14;16.30;99.90
43581;DHT22;29175;51.030;4.606;2022-10-31T09:44:56;16.20;99.90
43581;DHT22;29175;51.030;4.606;2022-10-31T09:50:47;16.40;99.90
43581;DHT22;29175;51.030;4.606;2022-10-31T09:56:10;16.40;99.90
43581;DHT22;29175;51.030;4.606;2022-10-31T09:58:46;16.40;99.90
43581;DHT22;29175;51.030;4.606;2022-10-31T10:01:29;16.40;99.90
43581;DHT22;29175;51.030;4.606;2022-10-31T10:04:05;16.30;99.90
43581;DHT22;29175;51.030;4.606;2022-10-31T10:06:43;16.30;99.90
43581;DHT22;29175;51.030;4.606;2022-10-31T10:09:10;16.30;99.90
43581;DHT22;29175;51.030;4.606;2022-10-31T10:17:10;16.40;99.90
43581;DHT22;29175;51.030;4.606;2022-10-31T10:31:05;16.50;99.90
43581;DHT22;29175;51.030;4.606;2022-10-31T10:36:06;17.10;99.90
43581;DHT22;29175;51.030;4.606;2022-10-31T10:38:53;17.30;99.90
43581;DHT22;29175;51.030;4.606;2022-10-31T10:41:22;17.60;99.90
43581;DHT22;29175;51.030;4.606;2022-10-31T10:43:51;17.70;99.90
43581;DHT22;29175;51.030;4.606;2022-10-31T10:46:43;17.90;99.90
43581;DHT22;29175;51.030;4.606;2022-10-31T10:58:04;18.00;99.90
43581;DHT22;29175;51.030;4.606;2022-10-31T11:00:42;18.00;99.90
43581;DHT22;29175;51.030;4.606;2022-10-31T11:03:08;18.10;99.90
43581;DHT22;29175;51.030;4.606;2022-10-31T11:08:06;18.00;99.90
43581;DHT22;29175;51.030;4.606;2022-10-31T11:10:32;18.10;99.90
43581;DHT22;29175;51.030;4.606;2022-10-31T11:13:06;18.20;99.90
43581;DHT22;29175;51.030;4.606;2022-10-31T11:15:37;18.40;99.90
43581;DHT22;29175;51.030;4.606;2022-10-31T11:18:05;18.40;99.90
43581;DHT22;29175;51.030;4.606;2022-10-31T11:20:35;18.60;99.90
43581;DHT22;29175;51.030;4.606;2022-10-31T11:23:22;18.70;99.90
43581;DHT22;29175;51.030;4.606;2022-10-31T11:26:02;18.40;99.90
43581;DHT22;29175;51.030;4.606;2022-10-31T11:28:29;18.70;99.90
43581;DHT22;29175;51.030;4.606;2022-10-31T11:31:10;18.60;99.90
43581;DHT22;29175;51.030;4.606;2022-10-31T11:36:29;18.70;99.90
43581;DHT22;29175;51.030;4.606;2022-10-31T11:38:56;18.80;99.90
43581;DHT22;29175;51.030;4.606;2022-10-31T11:41:28;18.60;99.90
43581;DHT22;29175;51.030;4.606;2022-10-31T11:46:48;18.70;99.90
43581;DHT22;29175;51.030;4.606;2022-10-31T11:49:25;18.90;99.90
43581;DHT22;29175;51.030;4.606;2022-10-31T11:51:54;18.80;99.90
43581;DHT22;29175;51.030;4.606;2022-10-31T11:54:29;19.30;99.90
43581;DHT22;29175;51.030;4.606;2022-10-31T11:56:55;19.10;99.90
43581;DHT22;29175;51.030;4.606;2022-10-31T11:59:23;19.10;99.90
43581;DHT22;29175;51.030;4.606;2022-10-31T12:01:51;19.10;99.90
43581;DHT22;29175;51.030;4.606;2022-10-31T12:04:17;19.20;99.90
43581;DHT22;29175;51.030;4.606;2022-10-31T12:06:44;19.00;99.90
43581;DHT22;29175;51.030;4.606;2022-10-31T12:09:27;19.30;99.90
43581;DHT22;29175;51.030;4.606;2022-10-31T12:14:54;19.10;99.90
43581;DHT22;29175;51.030;4.606;2022-10-31T12:22:51;19.10;99.90
43581;DHT22;29175;51.030;4.606;2022-10-31T12:25:38;19.30;99.90
43581;DHT22;29175;51.030;4.606;2022-10-31T12:45:04;19.10;99.90
43581;DHT22;29175;51.030;4.606;2022-10-31T12:47:42;19.50;99.90
43581;DHT22;29175;51.030;4.606;2022-10-31T12:53:18;19.50;99.90
43581;DHT22;29175;51.030;4.606;2022-10-31T12:58:43;19.60;99.90
43581;DHT22;29175;51.030;4.606;2022-10-31T13:01:29;19.60;99.90
43581;DHT22;29175;51.030;4.606;2022-10-31T13:04:03;19.70;99.90
43581;DHT22;29175;51.030;4.606;2022-10-31T13:06:35;19.90;99.90
43581;DHT22;29175;51.030;4.606;2022-10-31T13:09:09;20.10;99.90
43581;DHT22;29175;51.030;4.606;2022-10-31T13:11:40;19.80;99.90
43581;DHT22;29175;51.030;4.606;2022-10-31T13:17:00;19.40;99.90
43581;DHT22;29175;51.030;4.606;2022-10-31T13:19:42;19.60;99.90
43581;DHT22;29175;51.030;4.606;2022-10-31T13:22:26;19.50;99.90
43581;DHT22;29175;51.030;4.606;2022-10-31T13:24:57;19.80;99.90
43581;DHT22;29175;51.030;4.606;2022-10-31T13:27:30;20.00;99.90
43581;DHT22;29175;51.030;4.606;2022-10-31T13:30:22;20.10;99.90
43581;DHT22;29175;51.030;4.606;2022-10-31T13:35:53;20.00;99.90
43581;DHT22;29175;51.030;4.606;2022-10-31T13:38:33;20.40;99.90
43581;DHT22;29175;51.030;4.606;2022-10-31T13:41:20;20.30;99.90
43581;DHT22;29175;51.030;4.606;2022-10-31T13:46:38;20.50;99.90
43581;DHT22;29175;51.030;4.606;2022-10-31T13:57:35;20.20;99.90
43581;DHT22;29175;51.030;4.606;2022-10-31T14:00:07;20.00;99.90
43581;DHT22;29175;51.030;4.606;2022-10-31T14:02:52;19.70;99.90
43581;DHT22;29175;51.030;4.606;2022-10-31T14:05:31;19.60;99.90
43581;DHT22;29175;51.030;4.606;2022-10-31T14:08:01;19.70;99.90
43581;DHT22;29175;51.030;4.606;2022-10-31T14:10:30;19.70;99.90
43581;DHT22;29175;51.030;4.606;2022-10-31T14:15:30;19.20;99.90
43581;DHT22;29175;51.030;4.606;2022-10-31T14:18:02;19.30;99.90
43581;DHT22;29175;51.030;4.606;2022-10-31T14:23:38;19.50;99.90
43581;DHT22;29175;51.030;4.606;2022-10-31T14:28:52;19.30;99.90
43581;DHT22;29175;51.030;4.606;2022-10-31T14:31:39;19.30;99.90
43581;DHT22;29175;51.030;4.606;2022-10-31T14:34:18;19.50;99.90
43581;DHT22;29175;51.030;4.606;2022-10-31T14:45:31;19.50;99.90
43581;DHT22;29175;51.030;4.606;2022-10-31T14:48:03;19.40;99.90
43581;DHT22;29175;51.030;4.606;2022-10-31T14:50:49;19.30;99.90
43581;DHT22;29175;51.030;4.606;2022-10-31T14:55:53;19.30;99.90
43581;DHT22;29175;51.030;4.606;2022-10-31T14:58:42;19.50;99.90
43581;DHT22;29175;51.030;4.606;2022-10-31T15:01:32;19.80;99.90
43581;DHT22;29175;51.030;4.606;2022-10-31T15:04:04;19.60;99.90
43581;DHT22;29175;51.030;4.606;2022-10-31T15:06:40;19.40;99.90
43581;DHT22;29175;51.030;4.606;2022-10-31T15:09:24;19.30;99.90
43581;DHT22;29175;51.030;4.606;2022-10-31T15:11:50;19.10;99.90
43581;DHT22;29175;51.030;4.606;2022-10-31T15:14:28;19.10;99.90
43581;DHT22;29175;51.030;4.606;2022-10-31T15:16:56;19.00;99.90
43581;DHT22;29175;51.030;4.606;2022-10-31T15:19:28;18.90;99.90
43581;DHT22;29175;51.030;4.606;2022-10-31T15:21:56;19.10;99.90
43581;DHT22;29175;51.030;4.606;2022-10-31T15:24:25;19.00;99.90
43581;DHT22;29175;51.030;4.606;2022-10-31T15:26:53;19.00;99.90
43581;DHT22;29175;51.030;4.606;2022-10-31T15:29:25;18.80;99.90
43581;DHT22;29175;51.030;4.606;2022-10-31T15:31:56;18.70;99.90
43581;DHT22;29175;51.030;4.606;2022-10-31T15:34:42;18.60;99.90
43581;DHT22;29175;51.030;4.606;2022-10-31T15:37:15;18.60;99.90
43581;DHT22;29175;51.030;4.606;2022-10-31T15:39:41;18.50;99.90
43581;DHT22;29175;51.030;4.606;2022-10-31T15:42:34;18.30;99.90
43581;DHT22;29175;51.030;4.606;2022-10-31T15:45:05;18.20;99.90
43581;DHT22;29175;51.030;4.606;2022-10-31T15:47:32;18.10;99.90
43581;DHT22;29175;51.030;4.606;2022-10-31T15:49:59;18.10;99.90
43581;DHT22;29175;51.030;4.606;2022-10-31T15:55:26;18.10;99.90
43581;DHT22;29175;51.030;4.606;2022-10-31T15:57:52;18.10;99.90
43581;DHT22;29175;51.030;4.606;2022-10-31T16:00:31;18.00;99.90
43581;DHT22;29175;51.030;4.606;2022-10-31T16:05:43;17.80;99.90
43581;DHT22;29175;51.030;4.606;2022-10-31T16:11:01;17.60;99.90
43581;DHT22;29175;51.030;4.606;2022-10-31T16:16:29;17.60;99.90
43581;DHT22;29175;51.030;4.606;2022-10-31T16:18:56;17.40;99.90
43581;DHT22;29175;51.030;4.606;2022-10-31T16:21:31;17.40;99.90
43581;DHT22;29175;51.030;4.606;2022-10-31T16:24:01;17.40;99.90
43581;DHT22;29175;51.030;4.606;2022-10-31T16:26:28;17.40;99.90
43581;DHT22;29175;51.030;4.606;2022-10-31T16:28:55;17.40;99.90
43581;DHT22;29175;51.030;4.606;2022-10-31T16:31:37;17.40;99.90
43581;DHT22;29175;51.030;4.606;2022-10-31T16:34:14;17.40;99.90
43581;DHT22;29175;51.030;4.606;2022-10-31T16:36:40;17.30;99.90
43581;DHT22;29175;51.030;4.606;2022-10-31T16:39:06;17.10;99.90
43581;DHT22;29175;51.030;4.606;2022-10-31T16:41:38;17.00;99.90
43581;DHT22;29175;51.030;4.606;2022-10-31T16:44:17;16.90;99.90
43581;DHT22;29175;51.030;4.606;2022-10-31T16:46:43;16.80;99.90
43581;DHT22;29175;51.030;4.606;2022-10-31T16:49:09;16.90;99.90
43581;DHT22;29175;51.030;4.606;2022-10-31T16:51:35;16.80;99.90
43581;DHT22;29175;51.030;4.606;2022-10-31T16:54:01;16.70;99.90
43581;DHT22;29175;51.030;4.606;2022-10-31T16:56:29;16.70;99.90
43581;DHT22;29175;51.030;4.606;2022-10-31T16:58:57;16.70;99.90
43581;DHT22;29175;51.030;4.606;2022-10-31T17:01:23;16.60;99.90
43581;DHT22;29175;51.030;4.606;2022-10-31T17:03:49;16.60;99.90
43581;DHT22;29175;51.030;4.606;2022-10-31T17:06:15;16.50;99.90
43581;DHT22;29175;51.030;4.606;2022-10-31T17:08:41;16.40;99.90
43581;DHT22;29175;51.030;4.606;2022-10-31T17:11:13;16.40;99.90
43581;DHT22;29175;51.030;4.606;2022-10-31T17:13:40;16.40;99.90
43581;DHT22;29175;51.030;4.606;2022-10-31T17:16:06;16.30;99.90
43581;DHT22;29175;51.030;4.606;2022-10-31T17:18:31;16.30;99.90
43581;DHT22;29175;51.030;4.606;2022-10-31T17:20:58;16.20;99.90
43581;DHT22;29175;51.030;4.606;2022-10-31T17:23:25;16.20;99.90
43581;DHT22;29175;51.030;4.606;2022-10-31T17:25:51;16.30;99.90
43581;DHT22;29175;51.030;4.606;2022-10-31T17:28:17;16.20;99.90
43581;DHT22;29175;51.030;4.606;2022-10-31T17:30:43;16.10;99.90
43581;DHT22;29175;51.030;4.606;2022-10-31T17:33:14;16.10;99.90
43581;DHT22;29175;51.030;4.606;2022-10-31T17:35:41;16.10;99.90
43581;DHT22;29175;51.030;4.606;2022-10-31T17:38:07;16.10;99.90
43581;DHT22;29175;51.030;4.606;2022-10-31T17:40:33;16.00;99.90
43581;DHT22;29175;51.030;4.606;2022-10-31T17:43:01;16.00;99.90
43581;DHT22;29175;51.030;4.606;2022-10-31T17:45:27;16.00;99.90
43581;DHT22;29175;51.030;4.606;2022-10-31T17:47:53;16.00;99.90
43581;DHT22;29175;51.030;4.606;2022-10-31T17:50:21;16.00;99.90
43581;DHT22;29175;51.030;4.606;2022-10-31T17:52:46;16.00;99.90
43581;DHT22;29175;51.030;4.606;2022-10-31T17:55:13;16.00;99.90
43581;DHT22;29175;51.030;4.606;2022-10-31T17:57:39;15.90;99.90
43581;DHT22;29175;51.030;4.606;2022-10-31T18:00:07;15.90;99.90
43581;DHT22;29175;51.030;4.606;2022-10-31T18:02:35;15.80;99.90
43581;DHT22;29175;51.030;4.606;2022-10-31T18:05:01;15.80;99.90
43581;DHT22;29175;51.030;4.606;2022-10-31T18:07:27;15.80;99.90
43581;DHT22;29175;51.030;4.606;2022-10-31T18:09:53;15.80;99.90
43581;DHT22;29175;51.030;4.606;2022-10-31T18:12:19;15.80;99.90
43581;DHT22;29175;51.030;4.606;2022-10-31T18:14:45;15.80;99.90
43581;DHT22;29175;51.030;4.606;2022-10-31T18:17:10;15.80;99.90
43581;DHT22;29175;51.030;4.606;2022-10-31T18:19:36;15.70;99.90
43581;DHT22;29175;51.030;4.606;2022-10-31T18:22:02;15.80;99.90